Time;durP1;ratioP1;P1;durP2;ratioP2;P2;SDS_P1;SDS_P2;PMS_P1;PMS_P2;Temp;Humidity;BMP_temperature;BMP_pressure;BME280_temperature;BME280_humidity;BME280_pressure;Samples;Min_cycle;Max_cycle;Signal;HPM_P1;HPM_P2
2022/03/14 00:04:14;;;;;;;126.97;46.33;;;;;;;-1.65;49.63;100139.16;4230064;81;20990;-85
2022/03/14 00:10:17;;;;;;;118.07;47.27;;;;;;;-1.73;49.53;100145.87;4318507;81;21105;-85
2022/03/14 00:16:27;;;;;;;110.60;43.47;;;;;;;-1.79;49.77;100141.57;4326765;81;21088;-85
2022/03/14 00:22:29;;;;;;;97.67;39.43;;;;;;;-1.82;50.37;100147.44;4302913;81;21059;-84
2022/03/14 00:28:30;;;;;;;94.47;38.63;;;;;;;-1.83;50.82;100159.79;4322128;81;21092;-83
2022/03/14 00:34:33;;;;;;;80.67;35.87;;;;;;;-1.89;51.20;100156.83;4154452;85;21048;-83
2022/03/14 00:47:28;;;;;;;96.60;40.37;;;;;;;-1.96;52.23;100161.11;4329890;82;21007;-83
2022/03/14 00:53:31;;;;;;;139.63;52.77;;;;;;;-2.03;51.73;100157.06;4302255;82;21105;-82
2022/03/14 00:59:34;;;;;;;95.17;41.73;;;;;;;-2.16;52.87;100161.61;4302540;82;21026;-82
2022/03/14 01:05:35;;;;;;;91.73;36.43;;;;;;;-2.21;52.54;100165.06;4299644;82;20994;-82
2022/03/14 01:12:08;;;;;;;93.43;38.90;;;;;;;-2.25;53.15;100157.80;4297983;82;21586;-81
2022/03/14 01:18:41;;;;;;;80.33;35.37;;;;;;;-2.22;53.82;100170.16;4292377;82;22215;-81
2022/03/14 01:24:52;;;;;;;82.07;35.97;;;;;;;-2.15;53.89;100167.23;4291963;82;21049;-84
2022/03/14 01:30:53;;;;;;;78.47;34.43;;;;;;;-2.13;53.66;100171.81;4299211;82;21069;-82
2022/03/14 01:36:56;;;;;;;82.07;36.87;;;;;;;-2.13;54.67;100173.16;4305262;81;21065;-82
2022/03/14 01:42:59;;;;;;;88.20;37.97;;;;;;;-2.24;54.28;100172.30;4304122;82;21035;-82
2022/03/14 01:49:01;;;;;;;85.30;39.93;;;;;;;-2.45;54.30;100180.00;4307085;81;21093;-82
2022/03/14 01:55:04;;;;;;;86.83;40.97;;;;;;;-2.50;55.26;100200.08;4296472;82;21015;-82
2022/03/14 02:01:05;;;;;;;75.60;35.07;;;;;;;-2.56;55.42;100193.61;4293394;81;21058;-81
2022/03/14 02:07:06;;;;;;;84.50;37.03;;;;;;;-2.58;55.82;100197.89;4298498;81;21030;-81
2022/03/14 02:13:10;;;;;;;99.57;39.97;;;;;;;-2.60;55.86;100210.73;4296348;82;21043;-81
2022/03/14 02:19:18;;;;;;;80.20;38.00;;;;;;;-2.66;55.96;100216.36;4287177;82;21058;-81
2022/03/14 02:25:20;;;;;;;82.10;36.27;;;;;;;-2.77;56.32;100209.31;4292155;81;20975;-82
2022/03/14 02:31:21;;;;;;;88.53;39.50;;;;;;;-3.00;56.36;100209.67;4300448;81;21042;-82
2022/03/14 02:37:22;;;;;;;94.80;38.30;;;;;;;-3.07;56.59;100219.82;4305887;82;21022;-82
2022/03/14 02:43:25;;;;;;;92.40;39.20;;;;;;;-3.25;57.18;100219.15;4250049;82;21080;-83
2022/03/14 02:49:26;;;;;;;83.73;37.30;;;;;;;-3.35;57.39;100228.42;4238624;82;21074;-81
2022/03/14 02:55:28;;;;;;;83.50;36.63;;;;;;;-3.33;57.55;100228.98;4238619;83;21012;-82
2022/03/14 03:08:36;;;;;;;79.30;34.87;;;;;;;-3.60;57.88;100228.70;4218374;83;21062;-82
2022/03/14 03:14:37;;;;;;;84.60;34.97;;;;;;;-3.49;59.14;100229.91;4226175;83;21062;-83
2022/03/14 03:21:02;;;;;;;84.93;35.00;;;;;;;-3.41;59.27;100241.49;4245291;83;21569;-82
2022/03/14 03:27:27;;;;;;;89.73;37.73;;;;;;;-3.41;59.00;100242.83;4216605;83;21027;-82
2022/03/14 03:33:29;;;;;;;87.70;35.80;;;;;;;-3.59;59.43;100241.87;4226960;83;21086;-82
2022/03/14 03:39:30;;;;;;;80.53;36.27;;;;;;;-3.64;59.66;100252.52;4243135;82;21019;-82
2022/03/14 03:45:32;;;;;;;79.63;34.50;;;;;;;-3.64;59.68;100260.55;4268019;82;21027;-81
2022/03/14 03:51:34;;;;;;;84.60;34.67;;;;;;;-3.73;59.91;100274.07;4273077;82;21177;-82
2022/03/14 03:57:49;;;;;;;78.57;35.17;;;;;;;-3.80;60.02;100269.98;4284316;82;21375;-82
2022/03/14 04:03:56;;;;;;;93.87;38.30;;;;;;;-4.02;59.72;100269.18;4259623;82;21109;-82
2022/03/14 04:10:18;;;;;;;92.60;41.23;;;;;;;-4.12;60.64;100276.55;4266811;82;21555;-82
2022/03/14 04:16:22;;;;;;;89.80;38.73;;;;;;;-4.19;60.57;100282.62;4261593;82;21965;-82
2022/03/14 04:22:25;;;;;;;95.95;40.60;;;;;;;-4.42;60.88;100288.72;4138463;84;37927;-82
2022/03/14 04:28:28;;;;;;;99.17;41.83;;;;;;;-4.51;61.41;100294.21;4206530;83;21042;-82
2022/03/14 04:41:35;;;;;;;105.27;42.30;;;;;;;-4.54;62.06;100294.16;4205032;83;21042;-82
2022/03/14 04:47:38;;;;;;;93.87;41.47;;;;;;;-4.57;62.09;100302.66;4208553;83;21045;-82
2022/03/14 04:54:10;;;;;;;88.90;38.30;;;;;;;-4.55;63.34;100305.91;4205890;83;20991;-81
2022/03/14 05:00:13;;;;;;;90.67;40.17;;;;;;;-4.54;63.46;100312.86;4202775;83;21046;-81
2022/03/14 05:06:42;;;;;;;87.10;36.03;;;;;;;-4.58;63.56;100316.27;4202084;83;21079;-81
2022/03/14 05:12:43;;;;;;;85.50;38.87;;;;;;;-4.49;63.74;100330.86;4197859;83;21046;-80
2022/03/14 05:18:47;;;;;;;90.87;37.77;;;;;;;-4.38;63.11;100329.41;4203349;83;20983;-80
2022/03/14 05:24:48;;;;;;;100.40;40.57;;;;;;;-4.43;63.20;100333.89;4204992;84;21716;-80
2022/03/14 05:30:51;;;;;;;93.03;40.80;;;;;;;-4.45;63.42;100328.79;4205760;83;21030;-80
2022/03/14 05:36:53;;;;;;;96.77;42.53;;;;;;;-4.31;63.79;100328.72;4204139;83;21022;-80
2022/03/14 05:42:57;;;;;;;95.53;42.83;;;;;;;-4.27;63.69;100335.70;4189560;83;21039;-80
2022/03/14 05:48:58;;;;;;;91.33;42.47;;;;;;;-4.14;64.14;100333.50;4185017;83;21082;-80
2022/03/14 05:54:59;;;;;;;97.80;42.40;;;;;;;-3.92;64.25;100338.87;4219794;83;35934;-80
2022/03/14 06:01:02;;;;;;;93.33;41.87;;;;;;;-3.83;64.38;100343.54;4230491;83;21070;-80
2022/03/14 06:07:05;;;;;;;98.43;41.70;;;;;;;-3.59;65.20;100334.73;4225739;83;21074;-82
2022/03/14 06:13:07;;;;;;;84.23;38.67;;;;;;;-3.24;64.94;100343.94;4232434;83;21038;-80
2022/03/14 06:19:08;;;;;;;99.87;42.57;;;;;;;-2.78;65.54;100341.69;4236821;83;21062;-82
2022/03/14 06:25:12;;;;;;;89.07;39.77;;;;;;;-2.26;65.30;100340.75;4231557;83;21082;-81
2022/03/14 06:31:16;;;;;;;79.73;37.53;;;;;;;-1.59;65.71;100348.86;4229659;83;21079;-82
2022/03/14 06:37:17;;;;;;;81.43;36.73;;;;;;;-0.95;65.25;100348.77;4231060;83;21053;-81
2022/03/14 06:43:21;;;;;;;77.53;35.97;;;;;;;-0.44;65.07;100353.08;4223947;83;21617;-82
2022/03/14 06:49:30;;;;;;;84.22;38.95;;;;;;;-0.04;65.04;100353.03;4214670;83;21678;-84
2022/03/14 06:55:31;;;;;;;84.97;37.53;;;;;;;0.50;64.73;100363.88;4219467;83;21074;-82
2022/03/14 07:01:34;;;;;;;78.42;37.95;;;;;;;0.86;64.38;100361.28;4226377;83;22224;-82
2022/03/14 07:07:35;;;;;;;74.55;38.10;;;;;;;1.06;64.23;100365.23;4236816;83;21053;-83
2022/03/14 07:13:37;;;;;;;78.30;37.38;;;;;;;1.34;64.37;100361.79;4224410;83;21074;-85
2022/03/14 07:19:42;;;;;;;73.83;36.75;;;;;;;1.63;64.15;100372.60;4226452;83;21074;-84
2022/03/14 07:25:44;;;;;;;78.35;38.90;;;;;;;1.84;63.72;100380.80;4220425;83;21027;-84
2022/03/14 07:31:45;;;;;;;78.22;39.53;;;;;;;2.18;63.79;100376.13;4227573;83;21007;-84
2022/03/14 07:37:47;;;;;;;68.15;38.20;;;;;;;2.43;63.51;100375.84;4226452;83;20984;-88
2022/03/14 07:43:52;;;;;;;75.22;39.67;;;;;;;2.65;64.11;100376.66;4216955;83;21621;-82
2022/03/14 07:49:54;;;;;;;76.02;38.05;;;;;;;2.91;63.52;100382.80;4206965;83;21035;-83
2022/03/14 07:55:58;;;;;;;75.57;37.80;;;;;;;3.33;63.60;100385.19;4200266;83;21075;-82
2022/03/14 08:09:43;;;;;;;77.20;39.15;;;;;;;4.56;62.49;100387.34;4196853;83;22001;-82
2022/03/14 08:15:45;;;;;;;70.92;38.15;;;;;;;4.96;61.70;100382.98;4200191;84;21055;-83
2022/03/14 08:21:47;;;;;;;68.57;37.08;;;;;;;5.56;61.41;100384.30;4201518;83;21082;-85
2022/03/14 08:27:49;;;;;;;66.72;35.35;;;;;;;6.04;60.67;100381.78;4209436;82;21091;-84
2022/03/14 08:33:50;;;;;;;67.25;35.45;;;;;;;6.26;60.06;100383.09;4199337;83;21051;-85
2022/03/14 08:40:13;;;;;;;63.35;35.33;;;;;;;6.61;58.59;100386.19;4226465;81;21043;-86
2022/03/14 08:53:22;;;;;;;66.57;35.33;;;;;;;7.52;56.80;100370.62;4211617;83;21090;-85
2022/03/14 08:59:24;;;;;;;61.35;34.30;;;;;;;8.23;54.45;100362.26;4212643;84;21075;-86
2022/03/14 09:05:44;;;;;;;63.33;34.98;;;;;;;8.95;54.54;100365.60;4190773;83;21642;-87
2022/03/14 09:12:06;;;;;;;57.08;32.20;;;;;;;9.92;55.07;100367.69;4197863;83;21111;-87
2022/03/14 09:38:25;;;;;;;40.48;24.60;;;;;;;13.26;49.75;100369.20;4199830;84;21016;-86
2022/03/14 09:58:34;;;;;;;41.23;24.00;;;;;;;14.74;41.97;100348.04;4187363;85;21520;-88
2022/03/14 10:45:46;;;;;;;38.02;23.77;;;;;;;16.99;34.62;100343.94;4025463;87;21493;-89
2022/03/14 11:06:03;;;;;;;32.65;23.30;;;;;;;17.32;34.69;100324.19;3973547;83;21150;-88
2022/03/14 11:19:23;;;;;;;27.00;18.15;;;;;;;17.88;32.22;100313.34;4209134;83;21490;-90
2022/03/14 11:25:50;;;;;;;31.30;20.08;;;;;;;18.07;31.12;100301.91;4223216;83;21848;-89
2022/03/14 11:32:10;;;;;;;27.00;19.25;;;;;;;18.48;31.72;100295.63;4241822;83;21615;-89
2022/03/14 11:45:27;;;;;;;24.55;16.57;;;;;;;18.15;30.53;100284.88;4208311;83;21890;-88
2022/03/14 12:06:08;;;;;;;24.85;14.00;;;;;;;16.93;26.42;100276.34;4194725;83;22222;-87
2022/03/14 12:12:34;;;;;;;16.65;11.50;;;;;;;16.22;26.39;100265.94;4218326;83;21055;-86
2022/03/14 12:25:52;;;;;;;16.00;10.18;;;;;;;15.96;25.92;100255.64;4224101;83;21170;-86
2022/03/14 12:32:52;;;;;;;16.87;8.83;;;;;;;15.82;24.84;100239.71;4211540;83;21103;-87
2022/03/14 12:39:22;;;;;;;21.33;10.18;;;;;;;15.56;26.48;100230.19;4223722;83;21103;-86
2022/03/14 12:45:35;;;;;;;18.50;9.33;;;;;;;15.84;25.92;100232.42;4221098;83;21036;-88
2022/03/14 12:58:53;;;;;;;24.18;12.18;;;;;;;15.25;25.17;100233.35;4211694;82;70699;-89
2022/03/14 13:05:17;;;;;;;18.85;8.60;;;;;;;15.29;25.08;100232.22;4217658;82;21082;-88
2022/03/14 13:24:36;;;;;;;20.92;11.35;;;;;;;15.33;25.32;100221.23;4210772;83;21087;-89
2022/03/14 13:37:59;;;;;;;18.85;9.58;;;;;;;15.03;25.41;100219.09;4212959;83;21086;-88
2022/03/14 13:44:24;;;;;;;14.83;7.62;;;;;;;14.98;25.48;100227.69;4206490;83;21054;-88
2022/03/14 13:50:49;;;;;;;17.87;9.58;;;;;;;15.08;25.73;100225.05;4272094;82;20994;-88
2022/03/14 14:04:31;;;;;;;13.40;8.48;;;;;;;14.96;25.76;100230.02;4298961;82;21514;-90
2022/03/14 14:11:04;;;;;;;22.60;10.50;;;;;;;14.80;25.69;100232.19;4266225;82;21048;-87
2022/03/14 14:38:50;;;;;;;10.78;7.62;;;;;;;14.92;25.84;100233.33;4050925;86;21166;-88
2022/03/14 14:45:03;;;;;;;11.75;7.70;;;;;;;15.08;26.22;100238.07;4064331;86;21082;-88
2022/03/14 14:51:38;;;;;;;18.45;9.23;;;;;;;15.02;26.14;100243.11;4077170;86;21063;-88
